Startpagina
METAR-TAF:

METAR-TAF

Vliegvelden :

Fort Morgan, Colorado, Verenigde Staten

breedte: 40-20-02N, lengte: 103-48-15W, hoogte: 1393 m

Actueel weer

Dit bericht is 14 minuten geleden gemaakt, om 03:55 UTC
Weinig wind
Temperatuur 9°C
Vochtigheid 37%
Druk 1028 hPa
Zicht: 16.1 km

METAR: KFMM 200355Z AUTO 00000KT 10SM 09/M05 A3037 RMK AO2 T00861051

Tijdstip: 22:09 (04:09 UTC)


TAF: ontbreekt

Waarnemingen en weersverwachtingen van meer dan 4000 vliegvelden (METAR en TAF).

De beschikbare stations zijn de gele en rode punten op de kaart.

Ga met uw muis naar het station om de naam te zien.

Klik dan om waarnemingen en weersverwachtingen te zien.

kaart wijzigen: klik op de groene knoppen met een zwart kruis om in te zoomen, op de groene knop met een streepje om uit te zoomen of op de groene pijlen voor aangrenzende kaarten.


METAR-TAF: